Alumine, Argentina
Current Conditions -  °F | °C
As of 9:00 PM on Saturday 25 Oct 2014 (Local Time) from SCQP Reporting Station
Clear Clear  
Wind Chill: 61°   Ceiling: Unl
Heat Index: 61°   Visibility: 6mi
Dew Point: 52°   Wind: 3mph
Humidity: 72%   Direction: 300°WNW
Pressure: 29.88"   Gusts: NA
Location:  39.22°S, 70.95°W
Report Text: SCQP 260000Z 30003KT CAVOK 16/11 Q1012
Loading
Personal Weather Stations






























Interactive Weather Map New forecast layout! Learn more

10-Day Weather Forecast

Advertisements
Track Severe Weather on mobile